Rolla, MO

10:48 PM CDT on July 03, 2015 (GMT -0500)
College Hills | | Change Station
CLOSE
Current Station
Personal Weather Station
Location: Rolla, MO
Elevation: 1122 ft
Nearby Weather Stations
Active Advisory: Flood Warning Active Notice: Record Report

Elev 1122 ft 37.96 °N, 91.74 °W | Updated 53 seconds ago

Clear
Clear
65.6 °F
Feels Like 65.6 °F
N
0.0
Wind Variable Wind from NNE
Gusts 0.0 mph

Today
High -- | Low -- °F
--% Chance of Precip.
Yesterday
High -- | Low -- °F
Precip. -- in
5:49 AM 8:33 PM
Waning Gibbous, 94% visible
Pressure 29.91 in
Visibility 10.0 miles
Clouds Clear
Dew Point 63 °F
Humidity 91%
Rainfall 0.00 in
Snow Depth Not available.
UV 0.0 out of 12
Pollen 3.60 out of 12
Air Quality Not available.
Flu Activity Not available.
METAR KVIH 040253Z AUTO 00000KT 10SM CLR 19/18 A2993 RMK AO2 SLP128 T01940178 53012

More Conditions Fewer Conditions

Pressure 29.91 in
Visibility 10.0 miles
Clouds Clear
Dew Point 63 °F
Humidity 91%
Rainfall 0.00 in
Snow Depth Not available.
UV 0.0 out of 12
Pollen 3.60 out of 12
Air Quality Not available.
Flu Activity Not available.
METAR KVIH 040253Z AUTO 00000KT 10SM CLR 19/18 A2993 RMK AO2 SLP128 T01940178 53012

More Conditions Fewer Conditions

10-Day Weather Forecast

×

Almanac

Astronomy

Jul. 03, 2015 Rise Set
Actual Time
Civil Twilight
Nautical Twilight
Astronomical Twilight
Moon
Length of Visible Light
Length of Day
Tomorrow will be .
, % of the Moon is Illuminated

Today's Extremes

State Highs State Lows

Community

WunderPhotos

Upload Photos

1,834,917 photos uploaded!

WunderBlogs® & News

Nearby

Air Quality

  Air Quality AQ Index Pollutant
Not available.

Snow Depth

Station Depth Elevation

Earthquake Activity

City Distance Mag. Time & Date
Minimum magnitude displayed is 2.5.

Coastal Water Temperatures

Place Temperature

Stations

Nearby Weather Stations

Station Location Temp. Windchill Dew Point Humidity Wind Precip. Elev Updated Type
                   
Flood Warning
Statement as of 8:22 PM CDT on July 03, 2015

... For the Gasconade river at Jerome...
* at 7:45 PM Friday the stage was 15.2 feet.
* Flood stage is 15.0 feet.
* Minor flooding is occurring and minor flooding is forecast.
* Forecast... the river will continue rising to near 15.4 feet by
tomorrow evening. The river will fall below flood stage Sunday
morning.
* Impact... at 15.0 feet... minor flooding begins near the gage site.
Flood waters reach the lower edge of the Concrete building where
the gage equipment is located.



               Flood observed forecast 7 am

Location stage stage day time Sat sun Mon

Gasconade river basin
Jerome 15 15.2 Fri 08 PM 15.3 14.8 8.5




Lat... Lon 3800 9199 3800 9195 3790 9196 3792 9202


Burchfield